Map

Track Data

SID SEASON NUMBER BASIN SUBBASIN NAME ISO_TIME NATURE LAT LON WMO_WIND WMO_PRES WMO_AGENCY TRACK_TYPE DIST2LAND LANDFALL IFLAG USA_AGENCY USA_ATCF_ID USA_LAT USA_LON USA_RECORD USA_STATUS USA_WIND USA_PRES USA_SSHS USA_R34_NE USA_R34_SE USA_R34_SW USA_R34_NW USA_R50_NE USA_R50_SE USA_R50_SW USA_R50_NW USA_R64_NE USA_R64_SE USA_R64_SW USA_R64_NW USA_POCI USA_ROCI USA_RMW USA_EYE TOKYO_LAT TOKYO_LON TOKYO_GRADE TOKYO_WIND TOKYO_PRES TOKYO_R50_DIR TOKYO_R50_LONG TOKYO_R50_SHORT TOKYO_R30_DIR TOKYO_R30_LONG TOKYO_R30_SHORT TOKYO_LAND CMA_LAT CMA_LON CMA_CAT CMA_WIND CMA_PRES HKO_LAT HKO_LON HKO_CAT HKO_WIND HKO_PRES NEWDELHI_LAT NEWDELHI_LON NEWDELHI_GRADE NEWDELHI_WIND NEWDELHI_PRES NEWDELHI_CI NEWDELHI_DP NEWDELHI_POCI REUNION_LAT REUNION_LON REUNION_TYPE REUNION_WIND REUNION_PRES REUNION_TNUM REUNION_CI REUNION_RMW REUNION_R34_NE REUNION_R34_SE REUNION_R34_SW REUNION_R34_NW REUNION_R50_NE REUNION_R50_SE REUNION_R50_SW REUNION_R50_NW REUNION_R64_NE REUNION_R64_SE REUNION_R64_SW REUNION_R64_NW BOM_LAT BOM_LON BOM_TYPE BOM_WIND BOM_PRES BOM_TNUM BOM_CI BOM_RMW BOM_R34_NE BOM_R34_SE BOM_R34_SW BOM_R34_NW BOM_R50_NE BOM_R50_SE BOM_R50_SW BOM_R50_NW BOM_R64_NE BOM_R64_SE BOM_R64_SW BOM_R64_NW BOM_ROCI BOM_POCI BOM_EYE BOM_POS_METHOD BOM_PRES_METHOD NADI_LAT NADI_LON NADI_CAT NADI_WIND NADI_PRES WELLINGTON_LAT WELLINGTON_LON WELLINGTON_WIND WELLINGTON_PRES DS824_LAT DS824_LON DS824_STAGE DS824_WIND DS824_PRES TD9636_LAT TD9636_LON TD9636_STAGE TD9636_WIND TD9636_PRES TD9635_LAT TD9635_LON TD9635_WIND TD9635_PRES TD9635_ROCI NEUMANN_LAT NEUMANN_LON NEUMANN_CLASS NEUMANN_WIND NEUMANN_PRES MLC_LAT MLC_LON MLC_CLASS MLC_WIND MLC_PRES USA_GUST BOM_GUST BOM_GUST_PER REUNION_GUST REUNION_GUST_PER USA_SEAHGT USA_SEARAD_NE USA_SEARAD_SE USA_SEARAD_SW USA_SEARAD_NW STORM_SPEED STORM_DIR
1965088S14166 1965 35 SP MM NOT_NAMED 1965-03-29 00:00:00 TS -14.0000 166.000 main 101 59 O________OO_O_ jtwc_sh SH401965 -14.0000 166.000 -1 -14.0000 166.000 TC 35 -14.0000 166.000 2 -14.0000 166.000 TC 25 10 120
1965088S14166 1965 35 SP MM NOT_NAMED 1965-03-29 03:00:00 TS -14.2508 166.451 main 46 31 P________PP_P_ SH401965 -14.2502 166.460 -1 -14.2502 166.460 TC 35 -14.2552 166.426 2 -14.2477 166.457 TC 27 10 120
1965088S14166 1965 35 SP MM NOT_NAMED 1965-03-29 06:00:00 TS -14.5020 166.888 main 39 33 O________OP_O_ jtwc_sh SH401965 -14.5000 166.900 -1 -14.5000 166.900 TC 35 -14.5080 166.852 2 -14.5000 166.900 TC 30 10 121
1965088S14166 1965 35 SP MM NOT_NAMED 1965-03-29 09:00:00 TS -14.7535 167.302 main 31 31 P________PP_P_ SH401965 -14.7499 167.308 -1 -14.7499 167.308 TC 35 -14.7568 167.277 2 -14.7574 167.315 TC 30 9 122
1965088S14166 1965 35 SP MM NOT_NAMED 1965-03-29 12:00:00 TS -15.0000 167.700 main 64 64 O________OO_O_ jtwc_sh SH401965 -15.0000 167.700 -1 -15.0000 167.700 TC 35 -15.0000 167.700 2 -15.0000 167.700 TC 30 9 122
1965088S14166 1965 35 SP MM NOT_NAMED 1965-03-29 15:00:00 TS -15.2326 168.106 main 102 99 P________PP_P_ SH401965 -15.2500 168.123 -1 -15.2500 168.123 TC 35 -15.2378 168.115 2 -15.1924 168.065 TC 32 9 122
1965088S14166 1965 35 SP MM NOT_NAMED 1965-03-29 18:00:00 TS -15.4694 168.473 main 116 116 O________OP_O_ jtwc_sh SH401965 -15.5000 168.500 -1 -15.5000 168.500 TC 35 -15.4776 168.492 2 -15.4000 168.400 TC 35 8 127
1965088S14166 1965 35 SP MM NOT_NAMED 1965-03-29 21:00:00 TS -15.7246 168.793 main 126 120 P________PP_P_ SH401965 -15.7425 168.810 -1 -15.7425 168.810 TC 35 -15.7285 168.799 2 -15.6850 168.752 TC 35 7 136
1965088S14166 1965 35 SP MM NOT_NAMED 1965-03-30 00:00:00 TS -16.0000 169.000 main 132 128 O________OO_O_ jtwc_sh SH401965 -16.0000 169.000 -1 -16.0000 169.000 TC 35 -16.0000 169.000 2 -16.0000 169.000 TC 35 6 156
1965088S14166 1965 35 SP MM NOT_NAMED 1965-03-30 03:00:00 TS -16.2914 169.049 main 128 127 P________PP_P_ SH401965 -16.2849 169.053 -1 -16.2849 169.053 TC 35 -16.3032 169.030 2 -16.2924 169.060 TC 37 6 0
1965088S14166 1965 35 SP MM NOT_NAMED 1965-03-30 06:00:00 TS -16.6068 168.990 main 127 119 O________OP_O_ jtwc_sh SH401965 -16.6000 169.000 -1 -16.6000 169.000 TC 35 -16.6272 168.961 2 -16.6000 169.000 TC 40 7 193
1965088S14166 1965 35 SP MM NOT_NAMED 1965-03-30 09:00:00 TS -16.9513 168.883 main 125 120 P________PP_P_ SH401965 -16.9500 168.893 -1 -16.9500 168.893 TC 35 -16.9627 168.862 2 -16.9425 168.885 TC 37 7 195
1965088S14166 1965 35 SP MM NOT_NAMED 1965-03-30 12:00:00 TS -17.3000 168.800 main 132 132 O________OO_O_ jtwc_sh SH401965 -17.3000 168.800 -1 -17.3000 168.800 TC 35 -17.3000 168.800 2 -17.3000 168.800 TC 35 7 185
1965088S14166 1965 35 SP MM NOT_NAMED 1965-03-30 15:00:00 TS -17.6134 168.822 main 154 154 P________PP_P_ SH401965 -17.6000 168.805 -1 -17.6000 168.805 TC 35 -17.5961 168.815 2 -17.6575 168.862 TC 35 6 169
1965088S14166 1965 35 SP MM NOT_NAMED 1965-03-30 18:00:00 TS -17.9242 168.922 main 186 186 O________OP_O_ jtwc_sh SH401965 -17.9000 168.900 -1 -17.9000 168.900 TC 35 -17.8967 168.887 2 -18.0000 169.000 TC 35 7 160
1965088S14166 1965 35 SP MM NOT_NAMED 1965-03-30 21:00:00 TS -18.2371 169.058 main 226 226 P________PP_P_ SH401965 -18.2274 169.048 -1 -18.2274 169.048 TC 35 -18.2240 169.040 2 -18.2698 169.098 TC 35 8 152
1965088S14166 1965 35 SP MM NOT_NAMED 1965-03-31 00:00:00 TS -18.6000 169.300 main 274 274 O________OO_O_ jtwc_sh SH401965 -18.6000 169.300 -1 -18.6000 169.300 TC 35 -18.6000 169.300 2 -18.6000 169.300 TC 35 10 145
1965088S14166 1965 35 SP MM NOT_NAMED 1965-03-31 03:00:00 TS -19.0518 169.663 main 344 344 P________PP_P_ SH401965 -19.0198 169.640 -1 -19.0198 169.640 TC 35 -19.0400 169.681 2 -19.1275 169.690 TC 32 13 140
1965088S14166 1965 35 SP MM NOT_NAMED 1965-03-31 06:00:00 TS -19.5581 170.141 main 414 414 O________OP_O_ jtwc_sh SH401965 -19.5000 170.100 -1 -19.5000 170.100 TC 35 -19.5322 170.163 2 -19.7000 170.200 TC 30 14 136
1965088S14166 1965 35 SP MM NOT_NAMED 1965-03-31 09:00:00 TS -20.0780 170.699 main 449 449 P________PP_P_ SH401965 -20.0355 170.669 -1 -20.0355 170.669 TC 35 -20.0583 170.713 2 -20.1828 170.745 TC 27 15 134
1965088S14166 1965 35 SP MM NOT_NAMED 1965-03-31 12:00:00 TS -20.6000 171.300 main 479 O________OO_O_ jtwc_sh SH401965 -20.6000 171.300 -1 -20.6000 171.300 TC 35 -20.6000 171.300 2 -20.6000 171.300 TC 25 15 133

Digital Typhoon Data and Search

About IBTrACS Database

This database is a web-friendly format of International Best Track Archive for Climate Stewardship (IBTrACS), a global best track data archive curated by NOAA dating back to 1842.

Updated: 2021-10-08